Time;durP1;ratioP1;P1;durP2;ratioP2;P2;SDS_P1;SDS_P2;PMS_P1;PMS_P2;Temp;Humidity;BMP_temperature;BMP_pressure;BME280_temperature;BME280_humidity;BME280_pressure;Samples;Min_cycle;Max_cycle;Signal;HPM_P1;HPM_P2
2023/05/22 00:02:21;;;;;;;4.87;4.40;;;20.60;62.20;19.90;96078.00;;;;6066789;23;20178;-80
2023/05/22 00:04:48;;;;;;;6.40;4.53;;;20.60;62.30;19.80;96070.00;;;;6067376;23;20196;-81
2023/05/22 00:07:16;;;;;;;5.03;4.63;;;20.60;62.40;19.80;96077.00;;;;6066996;23;20255;-80
2023/05/22 00:09:43;;;;;;;4.23;3.93;;;20.50;62.60;19.70;96075.00;;;;6068956;23;20220;-80
2023/05/22 00:12:10;;;;;;;4.80;4.40;;;20.50;62.80;19.70;96072.00;;;;6071842;23;20207;-80
2023/05/22 00:14:39;;;;;;;4.97;4.47;;;20.50;62.90;19.70;96071.00;;;;6047039;23;20271;-79
2023/05/22 00:17:09;;;;;;;4.57;4.23;;;20.40;62.90;19.60;96065.00;;;;6072399;23;20259;-80
2023/05/22 00:19:37;;;;;;;4.67;4.27;;;20.40;63.10;19.60;96066.00;;;;6048144;23;20207;-79
2023/05/22 00:22:05;;;;;;;4.87;4.47;;;20.30;63.10;19.50;96065.00;;;;6074465;23;20227;-79
2023/05/22 00:24:32;;;;;;;5.20;4.70;;;20.30;63.20;19.50;96066.00;;;;6062807;23;20255;-79
2023/05/22 00:27:00;;;;;;;5.00;4.43;;;20.30;63.30;19.40;96061.00;;;;6073162;23;20178;-79
2023/05/22 00:29:28;;;;;;;8.80;4.43;;;20.20;63.30;19.40;96062.00;;;;6073895;23;20260;-79
2023/05/22 00:31:57;;;;;;;4.97;4.57;;;20.20;63.40;19.30;96064.00;;;;6085552;23;20223;-80
2023/05/22 00:34:24;;;;;;;4.80;4.40;;;20.10;63.50;19.30;96061.00;;;;6085612;23;20618;-78
2023/05/22 00:36:52;;;;;;;4.50;4.13;;;20.10;63.60;19.30;96057.00;;;;6085003;23;20183;-79
2023/05/22 00:39:20;;;;;;;5.33;4.90;;;20.10;63.70;19.20;96060.00;;;;6084417;23;20531;-79
2023/05/22 00:41:47;;;;;;;5.73;5.23;;;20.00;63.80;19.20;96055.00;;;;6083071;23;20180;-80
2023/05/22 00:44:15;;;;;;;5.37;4.87;;;20.00;63.90;19.10;96061.00;;;;6084085;23;20212;-78
2023/05/22 00:46:44;;;;;;;5.33;4.93;;;19.90;63.90;19.10;96060.00;;;;6078127;23;20180;-80
2023/05/22 00:49:13;;;;;;;5.10;4.60;;;19.90;64.00;19.10;96047.00;;;;6067635;23;20176;-80
2023/05/22 00:51:41;;;;;;;5.43;4.53;;;19.80;64.00;19.00;96051.00;;;;6067762;23;20263;-80
2023/05/22 00:54:10;;;;;;;5.23;4.73;;;19.80;64.10;18.90;96040.00;;;;6065778;23;20203;-81
2023/05/22 00:56:37;;;;;;;5.33;4.80;;;19.80;64.20;18.90;96043.00;;;;6069317;23;20251;-79
2023/05/22 00:59:04;;;;;;;7.00;5.30;;;19.70;64.40;18.90;96042.00;;;;6067232;23;20200;-80
2023/05/22 01:01:37;;;;;;;4.97;4.57;;;19.70;64.50;18.80;96051.00;;;;6068199;23;20183;-79
2023/05/22 01:04:08;;;;;;;4.60;4.20;;;19.70;64.60;18.80;96056.00;;;;6068104;23;20203;-80
2023/05/22 01:06:40;;;;;;;5.03;4.63;;;19.60;64.70;18.80;96046.00;;;;6066414;23;20615;-80
2023/05/22 01:09:08;;;;;;;5.60;5.10;;;19.60;64.80;18.70;96046.00;;;;6066484;23;20172;-80
2023/05/22 01:11:50;;;;;;;5.30;4.90;;;19.50;64.80;18.70;96048.00;;;;6067331;23;20180;-80
2023/05/22 01:14:32;;;;;;;5.77;5.17;;;19.50;65.00;18.60;96056.00;;;;6065893;23;20219;-80
2023/05/22 01:17:10;;;;;;;5.20;4.70;;;19.50;65.20;18.60;96058.00;;;;6068594;23;20509;-80
2023/05/22 01:20:14;;;;;;;4.90;4.40;;;19.50;65.40;18.60;96054.00;;;;6069824;23;20746;-80
2023/05/22 01:23:25;;;;;;;5.20;4.80;;;19.40;65.50;18.60;96058.00;;;;6061017;23;20231;-79
2023/05/22 01:26:55;;;;;;;5.20;4.73;;;19.40;65.50;18.50;96063.00;;;;6069269;23;20195;-80
2023/05/22 01:29:48;;;;;;;4.93;4.43;;;19.40;65.50;18.50;96067.00;;;;6009090;23;20193;-80
2023/05/22 01:32:21;;;;;;;5.37;4.87;;;19.40;65.50;18.50;96066.00;;;;6066920;23;20169;-80
2023/05/22 01:34:55;;;;;;;5.23;4.60;;;19.40;65.50;18.50;96067.00;;;;6067481;23;20202;-80
2023/05/22 01:37:27;;;;;;;5.23;4.83;;;19.30;65.70;18.40;96070.00;;;;6068079;23;20176;-79
2023/05/22 01:39:56;;;;;;;5.23;4.60;;;19.20;65.80;18.40;96066.00;;;;6068841;23;20196;-80
2023/05/22 01:42:24;;;;;;;5.30;4.90;;;19.30;66.10;18.40;96063.00;;;;6068082;23;20172;-80
2023/05/22 01:44:51;;;;;;;5.00;4.60;;;19.20;66.20;18.40;96072.00;;;;6067799;23;20199;-80
2023/05/22 01:47:21;;;;;;;5.20;4.80;;;19.20;66.20;18.40;96070.00;;;;6069196;23;20180;-80
2023/05/22 01:49:49;;;;;;;5.07;4.67;;;19.20;66.40;18.40;96063.00;;;;6068985;23;20527;-81
2023/05/22 01:52:29;;;;;;;4.73;4.30;;;19.20;66.40;18.30;96072.00;;;;6069700;23;20219;-80
2023/05/22 01:55:03;;;;;;;5.37;4.90;;;19.20;66.60;18.30;96075.00;;;;6070366;23;20206;-80
2023/05/22 01:57:40;;;;;;;5.30;4.80;;;19.10;66.50;18.30;96071.00;;;;6071402;23;20242;-80
2023/05/22 02:00:11;;;;;;;6.70;4.67;;;19.10;66.50;18.20;96068.00;;;;6049015;23;20243;-80
2023/05/22 02:02:46;;;;;;;9.63;5.00;;;19.10;66.90;18.20;96068.00;;;;6073740;23;20176;-79
2023/05/22 02:05:18;;;;;;;5.07;4.67;;;19.10;66.60;18.20;96066.00;;;;6078885;23;20160;-80
2023/05/22 02:07:46;;;;;;;5.47;4.97;;;19.00;66.50;18.20;96069.00;;;;6076496;23;20176;-79
2023/05/22 02:10:16;;;;;;;5.37;4.90;;;19.00;66.50;18.10;96068.00;;;;6075629;23;20664;-80
2023/05/22 02:12:44;;;;;;;4.90;4.47;;;19.00;66.60;18.10;96079.00;;;;6071374;23;20228;-79
2023/05/22 02:15:13;;;;;;;5.47;4.97;;;18.90;66.70;18.10;96068.00;;;;6072235;23;20192;-80
2023/05/22 02:17:43;;;;;;;4.90;4.50;;;18.90;66.70;18.00;96074.00;;;;6071887;23;20255;-78
2023/05/22 02:20:16;;;;;;;5.23;4.83;;;18.90;66.80;18.00;96067.00;;;;6071525;23;20199;-80
2023/05/22 02:22:45;;;;;;;5.87;5.37;;;18.90;66.80;18.00;96067.00;;;;6069665;23;20198;-81
2023/05/22 02:25:15;;;;;;;5.53;5.03;;;18.80;66.70;17.90;96072.00;;;;6065786;23;20182;-80
2023/05/22 02:27:44;;;;;;;7.67;5.20;;;18.80;66.80;17.90;96068.00;;;;6065062;23;20172;-80
2023/05/22 02:30:12;;;;;;;5.20;4.80;;;18.80;66.90;17.80;96074.00;;;;6041007;23;20180;-80
2023/05/22 02:32:42;;;;;;;5.80;5.30;;;18.70;66.90;17.80;96065.00;;;;6066549;23;20168;-80
2023/05/22 02:35:10;;;;;;;5.90;5.40;;;18.70;67.10;17.80;96064.00;;;;6017973;23;20173;-80
2023/05/22 02:37:38;;;;;;;4.97;4.47;;;18.70;67.20;17.70;96067.00;;;;6066996;23;20609;-80
2023/05/22 02:40:08;;;;;;;5.57;4.53;;;18.60;67.40;17.70;96070.00;;;;6066427;23;20592;-80
2023/05/22 02:42:36;;;;;;;5.30;4.80;;;18.60;67.50;17.70;96067.00;;;;6042629;23;20211;-80
2023/05/22 02:45:06;;;;;;;5.83;5.20;;;18.50;67.50;17.60;96073.00;;;;6068458;23;20196;-80
2023/05/22 02:47:33;;;;;;;5.67;5.10;;;18.50;67.70;17.60;96073.00;;;;6042480;23;20198;-79
2023/05/22 02:50:03;;;;;;;5.77;4.93;;;18.50;67.70;17.60;96073.00;;;;6067728;23;20258;-80
2023/05/22 02:52:30;;;;;;;4.97;4.57;;;18.50;67.90;17.60;96070.00;;;;6043027;23;20178;-81
2023/05/22 02:54:57;;;;;;;4.97;4.57;;;18.40;67.90;17.50;96067.00;;;;6068851;23;20275;-80
2023/05/22 02:57:25;;;;;;;4.93;4.43;;;18.40;67.90;17.50;96069.00;;;;6043529;23;20194;-80
2023/05/22 02:59:52;;;;;;;5.60;5.10;;;18.40;68.00;17.50;96064.00;;;;6068415;23;20707;-80
2023/05/22 03:02:20;;;;;;;5.87;5.37;;;18.40;68.10;17.50;96067.00;;;;6043131;23;20638;-80
2023/05/22 03:04:47;;;;;;;5.43;4.93;;;18.40;68.10;17.50;96068.00;;;;6068578;23;20227;-80
2023/05/22 03:07:18;;;;;;;5.17;4.73;;;18.40;68.10;17.50;96073.00;;;;6068533;23;20271;-80
2023/05/22 03:09:46;;;;;;;4.93;4.53;;;18.30;68.20;17.40;96066.00;;;;6067942;23;20175;-80
2023/05/22 03:12:13;;;;;;;5.77;5.27;;;18.30;68.10;17.40;96069.00;;;;6067840;23;20207;-80
2023/05/22 03:14:44;;;;;;;5.80;5.30;;;18.30;68.20;17.40;96062.00;;;;6068422;23;20267;-80
2023/05/22 03:17:11;;;;;;;5.70;5.20;;;18.30;68.30;17.30;96056.00;;;;6044114;23;20482;-79
2023/05/22 03:19:39;;;;;;;6.10;5.50;;;18.20;68.30;17.30;96067.00;;;;6043266;23;20267;-79
2023/05/22 03:22:06;;;;;;;5.80;5.30;;;18.20;68.40;17.30;96064.00;;;;6041021;23;20202;-80
2023/05/22 03:24:35;;;;;;;6.27;5.67;;;18.20;68.50;17.20;96068.00;;;;6067229;23;20196;-80
2023/05/22 03:27:03;;;;;;;5.70;5.20;;;18.20;68.60;17.20;96072.00;;;;6067389;23;20176;-79
2023/05/22 03:29:30;;;;;;;6.60;5.70;;;18.10;68.50;17.20;96073.00;;;;6067311;23;20475;-80
2023/05/22 03:31:58;;;;;;;6.17;5.57;;;18.10;68.50;17.10;96075.00;;;;6068207;23;20203;-80
2023/05/22 03:34:26;;;;;;;5.83;5.23;;;18.10;68.60;17.10;96078.00;;;;6069037;23;20196;-81
2023/05/22 03:36:56;;;;;;;5.77;5.27;;;18.10;68.70;17.10;96073.00;;;;6068284;23;20176;-81
2023/05/22 03:39:23;;;;;;;5.87;5.37;;;18.00;68.70;17.10;96070.00;;;;6068423;23;20195;-80
2023/05/22 03:41:54;;;;;;;6.40;5.80;;;18.00;68.70;17.00;96076.00;;;;6068797;23;20685;-81
2023/05/22 03:44:21;;;;;;;5.83;5.33;;;17.90;68.70;17.00;96077.00;;;;6042889;23;20283;-80
2023/05/22 03:46:49;;;;;;;7.53;5.53;;;17.90;68.60;17.00;96080.00;;;;6068768;23;20572;-80
2023/05/22 03:49:16;;;;;;;5.37;4.87;;;17.90;68.70;17.00;96085.00;;;;6068450;23;20187;-80
2023/05/22 03:51:43;;;;;;;5.73;5.13;;;17.90;68.90;16.90;96086.00;;;;6068627;23;20665;-80
2023/05/22 03:54:10;;;;;;;5.50;5.00;;;17.90;68.90;16.90;96085.00;;;;6045610;23;20275;-80
2023/05/22 03:56:38;;;;;;;5.67;5.27;;;17.80;68.90;16.90;96092.00;;;;6073826;23;20207;-80
2023/05/22 03:59:06;;;;;;;5.77;5.23;;;17.80;68.90;16.90;96087.00;;;;6072278;23;20248;-80
2023/05/22 04:01:34;;;;;;;5.73;5.33;;;17.80;69.00;16.90;96082.00;;;;6074106;23;20203;-80
2023/05/22 04:04:04;;;;;;;6.03;5.43;;;17.80;69.10;16.80;96088.00;;;;6048317;23;20710;-80
2023/05/22 04:06:32;;;;;;;5.50;5.10;;;17.80;69.40;16.80;96081.00;;;;6071576;23;20263;-80
2023/05/22 04:08:59;;;;;;;5.73;5.23;;;17.80;70.30;16.80;96083.00;;;;6072799;23;20176;-80
2023/05/22 04:11:29;;;;;;;5.53;5.03;;;17.70;69.70;16.80;96079.00;;;;6074053;23;20176;-80
2023/05/22 04:13:56;;;;;;;6.23;5.73;;;17.70;69.90;16.90;96085.00;;;;6073354;23;20220;-80
2023/05/22 04:16:25;;;;;;;6.13;5.60;;;17.70;70.00;16.90;96091.00;;;;6073691;23;20233;-80
2023/05/22 04:18:52;;;;;;;7.10;6.03;;;17.70;70.20;16.90;96092.00;;;;6071118;23;20247;-79
2023/05/22 04:21:20;;;;;;;7.33;6.00;;;17.80;70.30;16.90;96087.00;;;;6071129;23;20223;-81
2023/05/22 04:23:48;;;;;;;7.63;5.97;;;17.80;70.40;16.90;96092.00;;;;6054511;23;20207;-80
2023/05/22 04:26:16;;;;;;;6.23;5.70;;;17.80;70.50;17.00;96089.00;;;;6071980;23;20179;-83
2023/05/22 04:28:45;;;;;;;6.20;5.60;;;17.80;70.60;17.00;96088.00;;;;6072009;23;20172;-83
2023/05/22 04:31:13;;;;;;;6.00;5.40;;;17.80;70.50;17.00;96094.00;;;;6075309;23;20187;-81
2023/05/22 04:33:47;;;;;;;7.07;5.67;;;17.80;70.50;17.00;96094.00;;;;6069088;23;20212;-84
2023/05/22 04:36:14;;;;;;;6.37;5.73;;;17.80;70.50;17.00;96097.00;;;;6073714;23;20168;-83
2023/05/22 04:38:43;;;;;;;5.97;5.37;;;17.90;70.50;17.00;96101.00;;;;6073216;23;20204;-81
2023/05/22 04:41:12;;;;;;;5.77;5.17;;;17.90;70.50;17.00;96098.00;;;;6071932;23;20196;-83
2023/05/22 04:43:39;;;;;;;6.23;5.70;;;17.90;70.60;17.00;96103.00;;;;6071875;23;20278;-84
2023/05/22 04:46:07;;;;;;;6.50;5.83;;;17.90;70.60;17.00;96099.00;;;;6072395;23;20207;-87
2023/05/22 04:48:35;;;;;;;6.80;6.03;;;17.90;70.80;17.00;96098.00;;;;6069291;23;20208;-82
2023/05/22 04:51:06;;;;;;;7.10;5.67;;;17.90;70.90;17.10;96100.00;;;;6073854;23;20260;-83
2023/05/22 04:53:33;;;;;;;6.07;5.57;;;18.00;71.30;17.10;96096.00;;;;6067908;23;20274;-84
2023/05/22 04:56:01;;;;;;;6.73;6.13;;;18.00;71.40;17.20;96107.00;;;;6069150;23;20262;-84
2023/05/22 04:58:28;;;;;;;5.90;5.40;;;18.00;71.50;17.20;96104.00;;;;6068173;23;20561;-83
2023/05/22 05:00:56;;;;;;;6.63;6.03;;;18.10;72.40;17.20;96101.00;;;;6068747;23;20192;-82
2023/05/22 05:03:25;;;;;;;7.27;6.20;;;18.10;71.80;17.30;96107.00;;;;6070614;23;20353;-83
2023/05/22 05:05:52;;;;;;;6.30;5.80;;;18.10;72.00;17.30;96103.00;;;;6068716;23;20168;-84
2023/05/22 05:08:21;;;;;;;6.17;5.67;;;18.10;72.00;17.40;96100.00;;;;6069016;23;20187;-83
2023/05/22 05:10:48;;;;;;;6.23;5.73;;;18.20;72.20;17.40;96107.00;;;;6070795;23;20255;-84
2023/05/22 05:13:16;;;;;;;7.30;6.03;;;18.20;72.30;17.40;96105.00;;;;6045149;23;20200;-84
2023/05/22 05:15:43;;;;;;;6.53;5.93;;;18.30;72.50;17.50;96109.00;;;;6068738;23;20196;-83
2023/05/22 05:18:11;;;;;;;7.00;6.23;;;18.30;72.60;17.50;96108.00;;;;6092059;23;20187;-83
2023/05/22 05:20:38;;;;;;;7.60;6.63;;;18.30;72.70;17.60;96109.00;;;;6068982;23;20204;-83
2023/05/22 05:23:05;;;;;;;7.03;6.40;;;18.40;72.80;17.60;96101.00;;;;6069745;23;20192;-83
2023/05/22 05:25:37;;;;;;;7.77;6.97;;;18.40;72.80;17.70;96102.00;;;;6068386;23;20251;-81
2023/05/22 05:28:09;;;;;;;7.03;6.33;;;18.50;72.80;17.80;96108.00;;;;6069386;23;20489;-84
2023/05/22 05:30:37;;;;;;;7.17;6.47;;;18.50;72.70;17.80;96105.00;;;;6068957;23;20165;-84
2023/05/22 05:33:05;;;;;;;7.23;6.47;;;18.50;72.70;17.90;96104.00;;;;6043586;23;20271;-84
2023/05/22 05:35:32;;;;;;;7.23;6.53;;;18.60;72.70;17.90;96110.00;;;;6043746;23;20251;-83
2023/05/22 05:37:59;;;;;;;7.47;6.77;;;18.60;72.60;18.00;96105.00;;;;6044186;23;20182;-84
2023/05/22 05:40:26;;;;;;;8.90;7.47;;;18.70;72.60;18.10;96108.00;;;;6068351;23;20267;-83
2023/05/22 05:42:55;;;;;;;9.03;8.03;;;18.70;72.50;18.10;96106.00;;;;6044082;23;20204;-84
2023/05/22 05:45:23;;;;;;;9.30;7.00;;;18.80;72.30;18.20;96107.00;;;;6045450;23;20549;-83
2023/05/22 05:47:50;;;;;;;7.50;6.80;;;18.90;72.40;18.20;96116.00;;;;6070520;23;20259;-83
2023/05/22 05:50:18;;;;;;;7.57;6.83;;;18.90;72.40;18.30;96108.00;;;;6071030;23;20180;-83
2023/05/22 05:52:47;;;;;;;8.80;7.87;;;19.00;72.50;18.40;96110.00;;;;6046298;23;20176;-83
2023/05/22 05:55:15;;;;;;;8.87;7.83;;;19.00;72.40;18.40;96103.00;;;;6071370;23;20176;-83
2023/05/22 05:57:43;;;;;;;8.50;7.80;;;19.10;72.20;18.50;96110.00;;;;6045676;23;20172;-83
2023/05/22 06:00:14;;;;;;;8.93;7.97;;;19.10;72.10;18.50;96110.00;;;;6071351;23;20200;-83
2023/05/22 06:02:42;;;;;;;8.47;7.47;;;19.20;72.10;18.60;96109.00;;;;6071560;23;20223;-83
2023/05/22 06:05:10;;;;;;;8.30;7.47;;;19.30;71.90;18.70;96111.00;;;;6070734;23;20823;-83
2023/05/22 06:07:38;;;;;;;8.50;7.70;;;19.30;71.90;18.70;96114.00;;;;6046577;23;20207;-83
2023/05/22 06:10:06;;;;;;;8.23;7.40;;;19.30;71.80;18.80;96118.00;;;;6070929;23;20183;-83
2023/05/22 06:12:33;;;;;;;8.47;7.63;;;19.40;71.70;18.90;96113.00;;;;6071712;23;20195;-83
2023/05/22 06:15:01;;;;;;;8.23;7.43;;;19.50;71.70;18.90;96111.00;;;;6071128;23;20198;-83
2023/05/22 06:17:30;;;;;;;9.17;8.33;;;19.50;71.70;19.00;96112.00;;;;6071858;23;20206;-84
2023/05/22 06:19:58;;;;;;;9.03;8.23;;;19.60;71.50;19.10;96119.00;;;;6023356;23;20206;-83
2023/05/22 06:22:26;;;;;;;8.67;7.87;;;19.70;71.40;19.20;96119.00;;;;6049035;23;20485;-82
2023/05/22 06:24:53;;;;;;;9.67;8.03;;;19.70;71.20;19.20;96125.00;;;;6074330;23;20227;-83
2023/05/22 06:27:21;;;;;;;12.73;8.57;;;19.80;71.10;19.30;96127.00;;;;6072512;23;20674;-84
2023/05/22 06:29:49;;;;;;;10.60;8.53;;;19.90;71.10;19.40;96123.00;;;;6049806;23;20195;-83
2023/05/22 06:32:16;;;;;;;8.73;7.90;;;19.90;71.00;19.50;96123.00;;;;6049182;23;20529;-84
2023/05/22 06:34:47;;;;;;;8.57;7.77;;;20.00;71.20;19.60;96117.00;;;;6049024;23;20271;-83
2023/05/22 06:37:16;;;;;;;10.73;7.93;;;20.10;71.40;19.70;96119.00;;;;6050294;23;20178;-83
2023/05/22 06:39:44;;;;;;;9.00;8.10;;;20.20;71.40;19.70;96111.00;;;;6050614;23;20180;-83
2023/05/22 06:42:11;;;;;;;8.33;7.53;;;20.20;71.50;19.80;96113.00;;;;6076816;23;20232;-83
2023/05/22 06:44:39;;;;;;;8.97;7.70;;;20.30;71.80;19.90;96117.00;;;;6077504;23;20203;-83
2023/05/22 06:47:06;;;;;;;8.83;7.93;;;20.40;71.80;20.00;96120.00;;;;6053107;23;20199;-83
2023/05/22 06:49:34;;;;;;;8.97;8.07;;;20.50;71.70;20.10;96125.00;;;;6079423;23;20173;-84
2023/05/22 06:52:02;;;;;;;9.77;8.77;;;20.60;71.70;20.20;96124.00;;;;6080408;23;20176;-83
2023/05/22 06:54:32;;;;;;;8.93;8.13;;;20.70;71.50;20.20;96130.00;;;;6080136;23;20203;-83
2023/05/22 06:56:59;;;;;;;11.03;9.23;;;20.70;71.30;20.40;96125.00;;;;6082630;23;20204;-83
2023/05/22 06:59:27;;;;;;;9.23;8.33;;;20.80;71.00;20.50;96133.00;;;;6056561;23;20232;-83
2023/05/22 07:01:54;;;;;;;9.17;8.23;;;20.90;71.00;20.60;96135.00;;;;6083230;23;20210;-82
2023/05/22 07:04:22;;;;;;;10.73;8.37;;;21.00;71.10;20.70;96133.00;;;;6053812;23;20291;-81
2023/05/22 07:06:49;;;;;;;9.23;8.23;;;21.10;71.10;20.80;96140.00;;;;6073135;23;20184;-82
2023/05/22 07:09:20;;;;;;;8.73;7.87;;;21.20;71.20;21.00;96136.00;;;;6047368;23;20200;-83
2023/05/22 07:11:47;;;;;;;9.40;8.40;;;21.40;71.20;21.10;96138.00;;;;6072061;23;20650;-83
2023/05/22 07:14:16;;;;;;;10.40;8.73;;;21.50;71.10;21.20;96145.00;;;;6073037;23;20210;-82
2023/05/22 07:16:44;;;;;;;9.20;8.30;;;21.60;71.10;21.40;96149.00;;;;6073668;23;20200;-82
2023/05/22 07:19:12;;;;;;;9.67;8.77;;;21.80;71.00;21.50;96145.00;;;;6074649;23;20190;-82
2023/05/22 07:21:39;;;;;;;9.83;8.83;;;21.90;70.40;21.70;96148.00;;;;6027119;23;20196;-82
2023/05/22 07:24:08;;;;;;;8.67;7.87;;;22.00;70.50;21.80;96152.00;;;;6075200;23;20582;-82
2023/05/22 07:26:38;;;;;;;10.00;8.90;;;22.20;70.50;22.00;96142.00;;;;6077304;23;20188;-83
2023/05/22 07:29:06;;;;;;;9.13;8.17;;;22.30;70.40;22.10;96150.00;;;;6050520;23;20172;-82
2023/05/22 07:31:34;;;;;;;9.67;8.70;;;22.50;70.40;22.30;96149.00;;;;6049474;23;20223;-82
2023/05/22 07:34:01;;;;;;;9.73;8.73;;;22.60;70.00;22.40;96159.00;;;;6076740;23;20582;-82
2023/05/22 07:36:28;;;;;;;9.67;8.67;;;22.70;69.70;22.60;96147.00;;;;6051547;23;20207;-82
2023/05/22 07:38:56;;;;;;;10.23;9.13;;;22.90;69.50;22.70;96152.00;;;;6051409;23;20172;-82
2023/05/22 07:41:24;;;;;;;9.67;8.70;;;23.00;69.00;22.90;96152.00;;;;6051113;23;20221;-81
2023/05/22 07:43:53;;;;;;;9.50;8.53;;;23.20;68.80;23.00;96151.00;;;;6076272;23;20221;-82
2023/05/22 07:46:20;;;;;;;9.13;8.23;;;23.30;68.60;23.20;96158.00;;;;6076000;23;20193;-81
2023/05/22 07:48:48;;;;;;;9.37;8.37;;;23.50;68.20;23.30;96157.00;;;;6076720;23;20650;-81
2023/05/22 07:51:15;;;;;;;8.63;7.60;;;23.60;67.80;23.50;96159.00;;;;6076211;23;20179;-82
2023/05/22 07:53:42;;;;;;;9.13;8.27;;;23.80;67.80;23.60;96160.00;;;;6051913;23;20192;-80
2023/05/22 07:56:10;;;;;;;8.90;8.10;;;23.90;67.80;23.80;96161.00;;;;6073374;23;20179;-81
2023/05/22 07:58:38;;;;;;;8.87;7.97;;;24.10;67.30;23.90;96160.00;;;;6072647;23;20241;-82
2023/05/22 08:01:08;;;;;;;8.73;7.90;;;24.20;66.80;24.00;96147.00;;;;6046473;23;20210;-81
2023/05/22 08:03:35;;;;;;;9.17;7.93;;;24.30;66.00;24.20;96161.00;;;;6046713;23;20226;-83
2023/05/22 08:06:04;;;;;;;12.33;7.67;;;24.50;65.80;24.30;96165.00;;;;6073413;23;20259;-82
2023/05/22 08:08:32;;;;;;;8.40;7.60;;;24.60;65.10;24.50;96165.00;;;;6025417;23;20202;-82
2023/05/22 08:10:59;;;;;;;8.10;7.40;;;24.70;65.20;24.60;96167.00;;;;6048882;23;20207;-81
2023/05/22 08:13:27;;;;;;;8.40;7.60;;;24.90;65.30;24.80;96166.00;;;;6074173;23;20234;-82
2023/05/22 08:15:54;;;;;;;9.07;8.20;;;25.00;64.70;24.90;96162.00;;;;6074323;23;20207;-81
2023/05/22 08:18:26;;;;;;;8.07;7.40;;;25.20;64.20;25.00;96160.00;;;;6073931;23;20514;-81
2023/05/22 08:20:54;;;;;;;7.83;7.13;;;25.30;63.60;25.20;96149.00;;;;6049080;23;20187;-82
2023/05/22 08:23:21;;;;;;;8.33;7.53;;;25.40;63.80;25.30;96159.00;;;;6074564;23;20211;-81
2023/05/22 08:25:49;;;;;;;8.00;7.20;;;25.60;63.30;25.40;96156.00;;;;6075324;23;20259;-82
2023/05/22 08:28:17;;;;;;;9.00;7.70;;;25.70;63.20;25.60;96154.00;;;;6075114;23;20697;-82
2023/05/22 08:30:45;;;;;;;7.50;6.90;;;25.80;62.40;25.70;96165.00;;;;6049604;23;20203;-81
2023/05/22 08:33:12;;;;;;;9.67;7.57;;;25.90;62.50;25.80;96166.00;;;;6075070;23;20662;-81
2023/05/22 08:35:42;;;;;;;8.10;7.30;;;26.10;62.60;26.00;96161.00;;;;6049027;23;20253;-82
2023/05/22 08:38:10;;;;;;;10.33;7.53;;;26.20;62.50;26.10;96159.00;;;;6076494;23;20232;-82
2023/05/22 08:40:39;;;;;;;8.53;7.70;;;26.30;61.90;26.30;96161.00;;;;6076208;23;20211;-82
2023/05/22 08:43:07;;;;;;;8.00;7.27;;;26.50;61.40;26.40;96157.00;;;;6052588;23;20228;-81
2023/05/22 08:45:35;;;;;;;6.77;6.17;;;26.60;61.40;26.60;96156.00;;;;6076857;23;20661;-82
2023/05/22 08:48:05;;;;;;;7.97;7.23;;;26.80;61.30;26.70;96158.00;;;;6077430;23;20250;-82
2023/05/22 08:50:36;;;;;;;7.20;6.57;;;27.00;60.70;26.90;96150.00;;;;6076199;23;20199;-81
2023/05/22 08:53:08;;;;;;;6.87;6.23;;;27.10;60.50;27.00;96152.00;;;;6050784;23;20220;-82
2023/05/22 08:55:36;;;;;;;7.13;6.43;;;27.30;59.80;27.20;96152.00;;;;6050672;23;20210;-83
2023/05/22 08:58:05;;;;;;;6.88;6.18;;;27.40;59.40;27.40;96158.00;;;;6051641;23;20172;-81
2023/05/22 09:00:33;;;;;;;7.22;6.57;;;27.60;59.00;27.50;96157.00;;;;6050746;23;20172;-82
2023/05/22 09:03:01;;;;;;;7.10;6.40;;;27.70;58.40;27.60;96163.00;;;;6077215;23;20176;-82
2023/05/22 09:05:28;;;;;;;7.30;6.18;;;27.80;58.20;27.80;96154.00;;;;6075644;23;20191;-82
2023/05/22 09:07:56;;;;;;;7.05;6.35;;;28.00;58.10;27.90;96154.00;;;;6076373;23;20176;-82
2023/05/22 09:10:26;;;;;;;7.05;6.35;;;28.10;58.10;28.10;96156.00;;;;6076582;23;20172;-82
2023/05/22 09:13:06;;;;;;;6.18;5.65;;;28.30;57.70;28.20;96155.00;;;;6077648;23;20208;-82
2023/05/22 09:15:35;;;;;;;6.70;6.10;;;28.40;57.00;28.30;96159.00;;;;6077802;23;20160;-82
2023/05/22 09:18:04;;;;;;;7.93;6.40;;;28.50;57.40;28.50;96159.00;;;;6055529;23;20701;-83
2023/05/22 09:20:36;;;;;;;6.60;6.00;;;28.70;57.10;28.70;96159.00;;;;6083128;23;20172;-82
2023/05/22 09:23:13;;;;;;;6.90;6.28;;;28.80;56.70;28.80;96168.00;;;;6083435;23;20197;-83
2023/05/22 09:25:43;;;;;;;7.00;6.40;;;29.00;56.10;29.00;96171.00;;;;6057805;23;20175;-83
2023/05/22 09:28:11;;;;;;;6.88;6.25;;;29.10;56.50;29.10;96170.00;;;;6082364;23;20172;-82
2023/05/22 09:30:40;;;;;;;7.15;6.15;;;29.20;56.60;29.30;96170.00;;;;6050291;23;20183;-83
2023/05/22 09:33:12;;;;;;;8.25;6.55;;;29.40;56.40;29.50;96174.00;;;;6073429;23;20188;-83
2023/05/22 09:35:40;;;;;;;6.75;6.15;;;29.60;56.00;29.70;96174.00;;;;6072662;23;20195;-82
2023/05/22 09:38:10;;;;;;;7.10;6.40;;;29.70;55.90;29.90;96172.00;;;;6022793;23;20182;-82
2023/05/22 09:40:39;;;;;;;6.30;5.80;;;29.90;55.00;30.10;96175.00;;;;6072495;23;20202;-82
2023/05/22 09:43:09;;;;;;;6.30;5.80;;;30.10;55.10;30.20;96177.00;;;;6046162;23;20582;-83
2023/05/22 09:45:39;;;;;;;6.85;6.20;;;30.30;54.70;30.40;96178.00;;;;6048545;23;20167;-83
2023/05/22 09:48:09;;;;;;;7.47;6.70;;;30.40;54.60;30.50;96173.00;;;;6047132;23;20214;-82
2023/05/22 09:50:38;;;;;;;6.88;6.15;;;30.60;54.20;30.60;96177.00;;;;6071396;23;20275;-83
2023/05/22 09:53:07;;;;;;;6.35;5.85;;;30.70;53.70;30.70;96185.00;;;;6071888;23;20203;-82
2023/05/22 09:55:36;;;;;;;6.45;5.95;;;30.90;53.90;30.80;96180.00;;;;6071679;23;20168;-84
2023/05/22 09:58:09;;;;;;;6.45;5.93;;;31.00;52.90;30.80;96181.00;;;;6046365;23;20204;-83
2023/05/22 10:00:37;;;;;;;6.85;6.25;;;31.10;53.20;30.80;96182.00;;;;6046032;23;20161;-84
2023/05/22 10:03:11;;;;;;;6.80;6.00;;;31.20;53.00;30.90;96185.00;;;;6069719;23;20591;-83
2023/05/22 10:05:47;;;;;;;6.78;6.15;;;31.20;52.90;30.90;96181.00;;;;6070179;23;20195;-84
2023/05/22 10:08:18;;;;;;;7.05;6.45;;;31.30;52.60;31.00;96177.00;;;;6069918;23;20219;-84
2023/05/22 10:10:51;;;;;;;7.07;6.38;;;31.40;52.60;31.00;96183.00;;;;6025784;23;20186;-84
2023/05/22 10:13:21;;;;;;;6.90;5.85;;;31.50;52.20;31.00;96175.00;;;;6090706;23;20195;-84
2023/05/22 10:15:51;;;;;;;6.50;5.90;;;31.50;52.50;31.10;96179.00;;;;6066301;23;20176;-84
2023/05/22 10:18:18;;;;;;;9.45;6.05;;;31.60;52.60;31.10;96181.00;;;;6059014;23;20175;-82
2023/05/22 10:20:47;;;;;;;6.63;6.07;;;31.60;53.10;31.20;96177.00;;;;6055731;23;20215;-84
2023/05/22 10:23:15;;;;;;;7.55;6.85;;;31.70;52.90;31.20;96174.00;;;;6044116;23;20282;-84
2023/05/22 10:25:45;;;;;;;6.70;6.20;;;31.70;51.90;31.30;96171.00;;;;6043392;23;20275;-83
2023/05/22 10:28:22;;;;;;;6.97;6.03;;;31.70;51.90;31.30;96171.00;;;;6069147;23;20514;-81
2023/05/22 10:31:00;;;;;;;6.82;6.15;;;31.80;51.90;31.30;96167.00;;;;6072646;23;20235;-83
2023/05/22 10:33:36;;;;;;;7.20;6.50;;;31.80;51.80;31.30;96166.00;;;;6021025;23;20192;-82
2023/05/22 10:36:09;;;;;;;8.00;7.20;;;31.80;51.80;31.30;96170.00;;;;6067753;23;20254;-82
2023/05/22 10:39:07;;;;;;;7.53;6.93;;;31.80;51.80;31.30;96178.00;;;;6043095;23;20752;-84
2023/05/22 10:41:35;;;;;;;9.70;7.90;;;31.70;50.60;31.20;96175.00;;;;6069140;23;20266;-83
2023/05/22 10:44:04;;;;;;;7.47;6.88;;;31.70;51.50;31.10;96179.00;;;;6044712;23;20200;-83
2023/05/22 10:46:33;;;;;;;7.82;7.13;;;31.60;51.50;31.00;96181.00;;;;6044126;23;20251;-83
2023/05/22 10:49:03;;;;;;;7.38;6.78;;;31.50;51.10;30.90;96174.00;;;;6044947;23;20176;-84
2023/05/22 10:51:34;;;;;;;7.20;6.60;;;31.40;51.30;30.80;96176.00;;;;6044976;23;20247;-84
2023/05/22 10:54:04;;;;;;;8.23;7.40;;;31.30;51.30;30.70;96168.00;;;;6069836;23;20196;-83
2023/05/22 10:56:36;;;;;;;7.40;6.75;;;31.20;51.40;30.50;96168.00;;;;6044661;23;20182;-84
2023/05/22 10:59:06;;;;;;;8.05;7.35;;;31.10;51.20;30.40;96171.00;;;;6045013;23;20243;-83
2023/05/22 11:01:36;;;;;;;7.53;6.82;;;30.90;51.00;30.30;96169.00;;;;6070893;23;20191;-84
2023/05/22 11:04:11;;;;;;;7.28;6.57;;;30.80;51.60;30.10;96169.00;;;;6068006;23;20194;-84
2023/05/22 11:06:41;;;;;;;7.47;6.78;;;30.60;51.00;30.00;96160.00;;;;6068844;23;20176;-82